Decoded Metar for DAUE (EL GOLEA in ALGERIA) (IATA:ELG) | Meteo·Mobile Aviation Weather
aviador You're here:

DAUE Decoded Metar

EL GOLEA in ALGERIA
Report Time2019-08-22 22:00:00
UTC Time2019-08-22 22:31:48
Flight Rules vfr VFR
Wind060° at 05 kt
W.Decomp.*RWY 10: 3.8 kt HW 3.3 kt LCW
RWY 36: 2.6 kt HW 4.3 kt RCW
Visibility9999 m
Phenomena:N/A
Clouds:N/A
Expected CloudBase > 12,000 ft AGL from Temp-Dew spread
CeilingNone
Temp37°C (ISA +25)
Dew Point07°C (16% RH)
Heat Index34.8°C
AAT34.5°C
QNH1015 hPa
Density Alt4,144 ft
Elevation1,302 ft
Report Wrong Elevation
Raw Report
METAR DAUE 222200Z 06005KT CAVOK 37/07 Q1015=

Extra information for DAUE:More info

Metar Taf Metar & Taf Last 4 Metars F.Rules Stats Wind Profile Meteogram Temp Stats Airport Information Weather charts Add Link Nearby VenuesMetar ALERT Operation Metar Decoded Social comments